createdAt,value
2022-07-26T00:01:52.601Z,43.32
2022-07-26T00:04:20.452Z,43.56
2022-07-26T00:06:47.881Z,43.70
2022-07-26T00:09:15.290Z,43.65
2022-07-26T00:11:42.930Z,43.46
2022-07-26T00:14:10.346Z,43.75
2022-07-26T00:16:38.345Z,44.08
2022-07-26T00:19:09.945Z,43.86
2022-07-26T00:21:40.745Z,44.03
2022-07-26T00:24:08.865Z,44.02
2022-07-26T00:26:36.270Z,44.12
2022-07-26T00:29:06.094Z,45.02
2022-07-26T00:31:34.235Z,45.68
2022-07-26T00:34:01.735Z,45.97
2022-07-26T00:36:29.825Z,45.90
2022-07-26T00:38:57.630Z,47.12
2022-07-26T00:41:25.096Z,44.84
2022-07-26T00:43:57.362Z,43.44
2022-07-26T00:46:25.203Z,41.81
2022-07-26T00:48:52.744Z,41.95
2022-07-26T00:51:21.032Z,42.51
2022-07-26T00:53:49.134Z,42.67
2022-07-26T00:56:16.939Z,42.75
2022-07-26T00:58:44.796Z,42.71
2022-07-26T01:01:12.571Z,41.52
2022-07-26T01:03:40.189Z,42.52
2022-07-26T01:06:07.676Z,42.30
2022-07-26T01:08:35.396Z,44.11
2022-07-26T01:11:02.890Z,42.32
2022-07-26T01:13:34.757Z,42.48
2022-07-26T01:16:03.659Z,42.21
2022-07-26T01:18:31.155Z,42.79
2022-07-26T01:21:00.897Z,44.61
2022-07-26T01:23:28.904Z,44.14
2022-07-26T01:25:59.625Z,43.82
2022-07-26T01:28:27.763Z,43.28
2022-07-26T01:30:55.694Z,44.48
2022-07-26T01:33:23.146Z,43.99
2022-07-26T01:35:50.836Z,43.55
2022-07-26T01:38:18.659Z,43.49
2022-07-26T01:40:46.068Z,43.10
2022-07-26T01:43:13.506Z,44.39
2022-07-26T01:45:41.250Z,44.50
2022-07-26T01:48:08.727Z,45.61
2022-07-26T01:50:36.929Z,45.67
2022-07-26T01:53:06.106Z,46.30
2022-07-26T01:55:34.327Z,47.44
2022-07-26T01:58:01.883Z,47.19
2022-07-26T02:00:29.617Z,46.61
2022-07-26T02:02:57.709Z,45.28
2022-07-26T02:05:25.261Z,44.48
2022-07-26T02:07:52.725Z,42.76
2022-07-26T02:10:20.836Z,43.61
2022-07-26T02:12:49.643Z,43.05
2022-07-26T02:15:17.210Z,43.39
2022-07-26T02:17:44.954Z,43.43
2022-07-26T02:20:12.979Z,47.36
2022-07-26T02:22:40.399Z,48.16
2022-07-26T02:25:08.237Z,48.55
2022-07-26T02:27:35.716Z,48.75
2022-07-26T02:30:03.608Z,49.71
2022-07-26T02:32:31.369Z,48.66
2022-07-26T02:34:58.746Z,48.25
2022-07-26T02:37:26.148Z,48.45
2022-07-26T02:39:53.922Z,48.75
2022-07-26T02:42:22.532Z,49.96
2022-07-26T02:44:50.000Z,49.92
2022-07-26T02:47:17.707Z,49.36
2022-07-26T02:49:45.099Z,48.89
2022-07-26T02:52:12.649Z,49.10
2022-07-26T02:54:40.293Z,49.17
2022-07-26T02:57:07.763Z,49.30
2022-07-26T02:59:35.160Z,49.43
2022-07-26T03:02:03.046Z,50.36
2022-07-26T03:04:30.498Z,50.21
2022-07-26T03:06:57.919Z,49.87
2022-07-26T03:09:25.692Z,49.71
2022-07-26T03:11:53.321Z,49.65
2022-07-26T03:14:20.716Z,48.59
2022-07-26T03:16:48.381Z,48.12
2022-07-26T03:19:15.777Z,47.59
2022-07-26T03:21:43.154Z,47.61
2022-07-26T03:24:11.137Z,48.12
2022-07-26T03:26:38.933Z,48.90
2022-07-26T03:29:06.433Z,49.44
2022-07-26T03:31:36.383Z,49.74
2022-07-26T03:34:04.402Z,48.72
2022-07-26T03:36:32.105Z,48.92
2022-07-26T03:39:00.518Z,49.00
2022-07-26T03:41:28.037Z,48.78
2022-07-26T03:43:55.460Z,48.74
2022-07-26T03:46:23.382Z,49.12
2022-07-26T03:48:50.872Z,51.11
2022-07-26T03:51:18.336Z,51.67
2022-07-26T03:53:46.071Z,51.55
2022-07-26T03:56:28.934Z,51.10
2022-07-26T03:58:59.101Z,50.43
2022-07-26T04:01:27.232Z,49.39
2022-07-26T04:03:54.946Z,48.73
2022-07-26T04:06:23.173Z,48.50
2022-07-26T04:08:50.730Z,47.44
2022-07-26T04:11:18.507Z,47.06
2022-07-26T04:13:46.114Z,45.68
2022-07-26T04:16:14.455Z,43.17
2022-07-26T04:18:42.624Z,42.93
2022-07-26T04:21:10.092Z,46.17
2022-07-26T04:23:37.485Z,46.28
2022-07-26T04:26:05.631Z,46.42
2022-07-26T04:28:33.415Z,46.94
2022-07-26T04:31:00.983Z,46.48
2022-07-26T04:33:28.720Z,47.31
2022-07-26T04:35:56.213Z,48.27
2022-07-26T04:38:23.673Z,49.86
2022-07-26T04:40:51.899Z,48.33
2022-07-26T04:43:19.824Z,47.54
2022-07-26T04:45:47.608Z,46.55
2022-07-26T04:48:16.013Z,44.83
2022-07-26T04:50:43.714Z,42.44
2022-07-26T04:53:11.288Z,42.89
2022-07-26T04:55:39.553Z,43.21
2022-07-26T04:58:07.253Z,42.98
2022-07-26T05:00:51.106Z,43.27
2022-07-26T05:03:25.305Z,42.67
2022-07-26T05:05:52.891Z,43.27
2022-07-26T05:08:20.442Z,43.16
2022-07-26T05:10:53.133Z,42.68
2022-07-26T05:13:29.465Z,42.17
2022-07-26T05:15:59.651Z,41.28
2022-07-26T05:18:27.617Z,41.74
2022-07-26T05:20:57.709Z,42.03
2022-07-26T05:23:25.158Z,41.90
2022-07-26T05:25:52.987Z,41.21
2022-07-26T05:28:20.763Z,40.81
2022-07-26T05:30:48.373Z,40.68
2022-07-26T05:33:16.599Z,40.51
2022-07-26T05:35:44.653Z,40.21
2022-07-26T05:38:12.385Z,40.44
2022-07-26T05:40:39.818Z,39.36
2022-07-26T05:43:07.756Z,38.52
2022-07-26T05:45:35.214Z,37.93
2022-07-26T05:48:02.692Z,38.48
2022-07-26T05:50:30.485Z,38.45
2022-07-26T05:52:58.280Z,38.90
2022-07-26T05:55:25.672Z,40.26
2022-07-26T05:57:53.329Z,41.99
2022-07-26T06:00:21.179Z,41.12
2022-07-26T06:02:49.343Z,41.84
2022-07-26T06:05:17.537Z,42.65
2022-07-26T06:07:44.950Z,44.50
2022-07-26T06:10:13.551Z,44.23
2022-07-26T06:12:41.196Z,42.34
2022-07-26T06:15:15.415Z,46.52
2022-07-26T06:17:43.811Z,46.54
2022-07-26T06:20:11.573Z,47.64
2022-07-26T06:22:39.022Z,47.59
2022-07-26T06:25:07.315Z,47.56
2022-07-26T06:27:34.793Z,48.56
2022-07-26T06:30:02.236Z,48.30
2022-07-26T06:32:29.929Z,47.70
2022-07-26T06:34:57.365Z,47.74
2022-07-26T06:37:24.986Z,47.88
2022-07-26T06:39:53.138Z,47.99
2022-07-26T06:42:20.548Z,47.97
2022-07-26T06:44:48.109Z,49.21
2022-07-26T06:47:15.832Z,48.48
2022-07-26T06:49:44.827Z,48.42
2022-07-26T06:52:12.303Z,48.55
2022-07-26T06:54:40.029Z,48.18
2022-07-26T06:57:07.958Z,48.76
2022-07-26T06:59:35.480Z,49.04
2022-07-26T07:02:04.040Z,47.82
2022-07-26T07:04:33.257Z,46.93
2022-07-26T07:07:06.453Z,46.26
2022-07-26T07:09:35.289Z,47.00
2022-07-26T07:12:09.813Z,46.26
2022-07-26T07:14:39.479Z,46.59
2022-07-26T07:17:13.109Z,45.61
2022-07-26T07:19:42.716Z,45.73
2022-07-26T07:22:12.235Z,45.29
2022-07-26T07:24:40.465Z,43.98
2022-07-26T07:27:08.525Z,44.04
2022-07-26T07:29:36.213Z,42.77
2022-07-26T07:32:03.956Z,42.17
2022-07-26T07:34:31.703Z,41.98
2022-07-26T07:36:59.942Z,41.36
2022-07-26T07:39:34.529Z,41.19
2022-07-26T07:42:06.236Z,41.61
2022-07-26T07:44:33.651Z,40.42
2022-07-26T07:47:01.198Z,39.96
2022-07-26T07:49:28.961Z,39.72
2022-07-26T07:51:56.441Z,40.21
2022-07-26T07:54:23.877Z,41.43
2022-07-26T07:56:55.059Z,44.75
2022-07-26T07:59:23.633Z,44.40
2022-07-26T08:01:51.319Z,44.79
2022-07-26T08:04:19.161Z,43.48
2022-07-26T08:06:50.078Z,43.64
2022-07-26T08:09:19.565Z,45.10
2022-07-26T08:11:51.120Z,46.12
2022-07-26T08:14:19.436Z,46.21
2022-07-26T08:16:47.081Z,45.59
2022-07-26T08:19:15.690Z,45.16
2022-07-26T08:21:46.090Z,45.07
2022-07-26T08:24:14.525Z,44.34
2022-07-26T08:26:42.013Z,45.30
2022-07-26T08:29:10.141Z,47.35
2022-07-26T08:31:37.939Z,45.73
2022-07-26T08:34:05.370Z,44.51
2022-07-26T08:36:33.329Z,43.78
2022-07-26T08:39:01.687Z,43.48
2022-07-26T08:41:29.270Z,43.22
2022-07-26T08:44:05.541Z,42.00
2022-07-26T08:46:36.273Z,41.52
2022-07-26T08:49:06.121Z,40.44
2022-07-26T08:51:34.294Z,40.99
2022-07-26T08:54:05.677Z,41.06
2022-07-26T08:56:35.530Z,41.39
2022-07-26T08:59:05.585Z,41.28
2022-07-26T09:01:33.648Z,40.93
2022-07-26T09:04:31.189Z,41.19
2022-07-26T09:07:05.787Z,40.75
2022-07-26T09:09:38.839Z,40.73
2022-07-26T09:12:18.314Z,41.30
2022-07-26T09:14:47.194Z,41.27
2022-07-26T09:17:16.670Z,41.83
2022-07-26T09:19:45.173Z,42.49
2022-07-26T09:22:16.921Z,44.56
2022-07-26T09:24:46.570Z,46.10
2022-07-26T09:27:16.696Z,47.58
2022-07-26T09:29:48.046Z,48.00
2022-07-26T09:32:20.975Z,50.23
2022-07-26T09:35:44.183Z,51.04
2022-07-26T09:37:59.247Z,52.89
2022-07-26T09:40:34.689Z,54.28
2022-07-26T09:43:05.521Z,55.21
2022-07-26T09:45:36.089Z,54.50
2022-07-26T09:48:04.319Z,53.94
2022-07-26T09:50:33.033Z,53.20
2022-07-26T09:53:10.396Z,56.24
2022-07-26T09:55:45.147Z,59.18
2022-07-26T09:58:14.454Z,62.88
2022-07-26T10:00:43.627Z,69.28
2022-07-26T10:03:12.022Z,69.36
2022-07-26T10:05:39.533Z,70.42
2022-07-26T10:08:08.008Z,73.41
2022-07-26T10:10:40.394Z,73.67
2022-07-26T10:13:08.818Z,77.40
2022-07-26T10:15:43.579Z,77.22
2022-07-26T10:18:16.754Z,79.98
2022-07-26T10:20:48.976Z,82.21
2022-07-26T10:23:35.057Z,80.96
2022-07-26T10:26:04.373Z,83.26
2022-07-26T10:28:33.841Z,84.40
2022-07-26T10:31:26.726Z,83.31
2022-07-26T10:33:55.409Z,85.82
2022-07-26T10:36:25.717Z,82.76
2022-07-26T10:39:12.011Z,81.49
2022-07-26T10:41:44.660Z,82.23
2022-07-26T10:44:23.718Z,82.62
2022-07-26T10:47:10.055Z,81.96
2022-07-26T10:49:40.394Z,81.78
2022-07-26T10:52:12.993Z,81.43
2022-07-26T10:54:59.144Z,81.30
2022-07-26T10:57:27.730Z,81.45
2022-07-26T10:59:57.873Z,84.54
2022-07-26T11:02:32.642Z,80.70
2022-07-26T11:05:15.070Z,82.46
2022-07-26T11:08:10.442Z,81.73
2022-07-26T11:10:39.684Z,80.56
2022-07-26T11:13:12.837Z,79.04
2022-07-26T11:15:45.928Z,77.47
2022-07-26T11:18:28.269Z,78.20
2022-07-26T11:20:57.794Z,77.03
2022-07-26T11:23:33.661Z,75.54
2022-07-26T11:26:15.168Z,76.63
2022-07-26T11:29:06.231Z,75.52
2022-07-26T11:31:55.917Z,75.21
2022-07-26T11:34:35.847Z,74.55
2022-07-26T11:37:04.976Z,74.19
2022-07-26T11:39:34.185Z,74.93
2022-07-26T11:42:04.390Z,75.14
2022-07-26T11:44:32.606Z,75.29
2022-07-26T11:47:01.001Z,73.55
2022-07-26T11:52:25.053Z,73.77
2022-07-26T11:54:53.778Z,73.03
2022-07-26T11:57:22.230Z,73.60
2022-07-26T11:59:51.378Z,74.49
2022-07-26T12:02:20.673Z,72.49
2022-07-26T12:04:48.397Z,71.83
2022-07-26T12:07:18.557Z,72.80
2022-07-26T12:09:51.505Z,70.99
2022-07-26T12:12:31.889Z,71.54
2022-07-26T12:15:05.718Z,72.06
2022-07-26T12:17:35.740Z,72.65
2022-07-26T12:20:17.437Z,70.94
2022-07-26T12:22:57.686Z,72.57
2022-07-26T12:25:29.372Z,72.28
2022-07-26T12:27:57.326Z,71.04
2022-07-26T12:30:25.699Z,73.86
2022-07-26T12:33:02.273Z,70.95
2022-07-26T12:35:35.607Z,70.57
2022-07-26T12:38:03.541Z,72.51
2022-07-26T12:40:40.393Z,71.39
2022-07-26T12:43:08.811Z,73.89
2022-07-26T12:45:36.406Z,73.39
2022-07-26T12:48:10.163Z,71.99
2022-07-26T12:50:37.989Z,72.01
2022-07-26T12:53:07.247Z,72.47
2022-07-26T12:55:35.603Z,73.38
2022-07-26T12:58:03.323Z,72.02
2022-07-26T13:00:30.898Z,71.94
2022-07-26T13:02:58.361Z,71.56
2022-07-26T13:05:26.062Z,71.14
2022-07-26T13:07:54.286Z,70.87
2022-07-26T13:10:33.112Z,69.56
2022-07-26T13:13:02.110Z,68.24
2022-07-26T13:15:37.267Z,66.69
2022-07-26T13:18:07.328Z,64.43
2022-07-26T13:20:37.847Z,63.27
2022-07-26T13:23:06.898Z,62.35
2022-07-26T13:25:39.638Z,61.22
2022-07-26T13:28:08.600Z,60.89
2022-07-26T13:30:37.647Z,63.06
2022-07-26T13:33:05.290Z,60.79
2022-07-26T13:35:32.991Z,60.76
2022-07-26T13:38:00.403Z,60.24
2022-07-26T13:40:31.583Z,59.11
2022-07-26T13:43:00.299Z,60.55
2022-07-26T13:45:29.035Z,60.56
2022-07-26T13:47:58.897Z,60.15
2022-07-26T13:50:28.408Z,60.12
2022-07-26T13:52:56.734Z,60.11
2022-07-26T13:55:25.104Z,60.96
2022-07-26T13:57:56.130Z,61.57
2022-07-26T14:00:27.169Z,60.14
2022-07-26T14:02:56.027Z,58.46
2022-07-26T14:05:24.522Z,61.27
2022-07-26T14:07:52.155Z,59.27
2022-07-26T14:10:20.913Z,58.63
2022-07-26T14:12:48.600Z,59.81
2022-07-26T14:15:21.587Z,58.32
2022-07-26T14:17:52.946Z,57.77
2022-07-26T14:20:21.506Z,58.51
2022-07-26T14:22:53.376Z,61.71
2022-07-26T14:25:25.119Z,60.91
2022-07-26T14:27:54.171Z,60.98
2022-07-26T14:30:22.375Z,62.31
2022-07-26T14:32:49.875Z,61.36
2022-07-26T14:35:17.452Z,59.39
2022-07-26T14:37:46.099Z,59.43
2022-07-26T14:40:15.619Z,61.97
2022-07-26T14:42:43.422Z,62.79
2022-07-26T14:45:11.650Z,62.52
2022-07-26T14:47:39.305Z,63.18
2022-07-26T14:50:08.157Z,61.42
2022-07-26T14:52:40.990Z,59.96
2022-07-26T14:55:09.193Z,60.63
2022-07-26T14:57:39.273Z,60.28
2022-07-26T15:00:10.023Z,58.60
2022-07-26T15:02:43.075Z,58.65
2022-07-26T15:05:12.221Z,62.94
2022-07-26T15:07:40.794Z,61.85
2022-07-26T15:10:10.619Z,60.23
2022-07-26T15:12:38.760Z,60.33
2022-07-26T15:15:08.767Z,60.12
2022-07-26T15:17:36.468Z,60.34
2022-07-26T15:20:05.159Z,59.36
2022-07-26T15:22:32.995Z,61.25
2022-07-26T15:25:00.441Z,59.54
2022-07-26T15:27:27.891Z,61.08
2022-07-26T15:30:01.046Z,60.12
2022-07-26T15:32:31.777Z,60.85
2022-07-26T15:34:59.741Z,63.38
2022-07-26T15:37:27.711Z,63.40
2022-07-26T15:39:55.143Z,60.64
2022-07-26T15:42:23.353Z,58.81
2022-07-26T15:44:50.970Z,59.01
2022-07-26T15:47:36.947Z,59.24
2022-07-26T15:50:08.431Z,62.13
2022-07-26T15:52:42.242Z,59.39
2022-07-26T15:55:11.624Z,61.02
2022-07-26T15:57:39.368Z,59.45
2022-07-26T16:00:11.071Z,59.70
2022-07-26T16:02:40.690Z,62.04
2022-07-26T16:05:09.054Z,59.87
2022-07-26T16:07:36.459Z,58.76
2022-07-26T16:10:04.832Z,60.21
2022-07-26T16:12:33.270Z,59.48
2022-07-26T16:15:00.947Z,60.99
2022-07-26T16:17:28.670Z,59.42
2022-07-26T16:19:56.138Z,61.41
2022-07-26T16:22:23.931Z,58.04
2022-07-26T16:24:51.734Z,57.97
2022-07-26T16:27:19.331Z,57.83
2022-07-26T16:29:51.996Z,56.43
2022-07-26T16:32:21.427Z,56.80
2022-07-26T16:34:49.155Z,59.20
2022-07-26T16:37:16.606Z,58.63
2022-07-26T16:39:44.584Z,58.60
2022-07-26T16:42:12.256Z,59.38
2022-07-26T16:44:39.786Z,58.35
2022-07-26T16:47:07.612Z,57.64
2022-07-26T16:59:39.791Z,57.83
2022-07-26T17:02:09.131Z,57.83
2022-07-26T17:04:36.847Z,56.39
2022-07-26T17:09:52.174Z,54.50
2022-07-26T17:12:19.634Z,54.46
2022-07-26T17:14:47.103Z,54.68
2022-07-26T17:17:14.887Z,55.09
2022-07-26T17:19:42.297Z,53.92
2022-07-26T17:22:09.695Z,54.37
2022-07-26T17:24:37.388Z,55.27
2022-07-26T17:27:05.161Z,54.15
2022-07-26T17:29:33.494Z,54.76
2022-07-26T17:32:01.379Z,53.95
2022-07-26T17:34:28.810Z,54.13
2022-07-26T17:36:58.511Z,54.26
2022-07-26T17:39:40.369Z,53.50
2022-07-26T17:42:14.864Z,54.34
2022-07-26T17:44:42.691Z,53.58
2022-07-26T17:47:28.355Z,53.93
2022-07-26T17:50:13.898Z,54.35
2022-07-26T17:52:47.598Z,54.42
2022-07-26T17:55:15.780Z,53.96
2022-07-26T17:57:43.204Z,53.87
2022-07-26T18:00:11.557Z,53.93
2022-07-26T18:02:39.314Z,54.28
2022-07-26T18:05:07.059Z,53.69
2022-07-26T18:07:34.611Z,53.62
2022-07-26T18:10:02.839Z,54.50
2022-07-26T18:12:31.304Z,54.04
2022-07-26T18:14:58.907Z,55.57
2022-07-26T18:17:26.840Z,55.05
2022-07-26T18:19:54.367Z,55.21
2022-07-26T18:22:23.253Z,56.32
2022-07-26T18:24:51.238Z,56.06
2022-07-26T18:27:19.682Z,56.55
2022-07-26T18:29:47.340Z,55.46
2022-07-26T18:32:15.377Z,55.72
2022-07-26T18:34:51.713Z,55.42
2022-07-26T18:37:20.581Z,55.74
2022-07-26T18:39:52.719Z,55.74
2022-07-26T18:42:23.260Z,56.59
2022-07-26T18:44:50.730Z,56.27
2022-07-26T18:47:18.269Z,57.21
2022-07-26T18:49:46.001Z,58.03
2022-07-26T18:52:13.433Z,58.17
2022-07-26T18:54:40.835Z,58.06
2022-07-26T18:57:08.559Z,58.38
2022-07-26T18:59:36.070Z,58.73
2022-07-26T19:02:04.309Z,59.90
2022-07-26T19:04:32.156Z,58.99
2022-07-26T19:06:59.679Z,58.86
2022-07-26T19:09:27.084Z,59.41
2022-07-26T19:11:55.217Z,59.48
2022-07-26T19:14:22.639Z,60.86
2022-07-26T19:16:50.370Z,58.65
2022-07-26T19:19:18.043Z,59.65
2022-07-26T19:21:47.283Z,59.91
2022-07-26T19:24:14.926Z,59.71
2022-07-26T19:26:42.702Z,59.37
2022-07-26T19:29:10.407Z,59.27
2022-07-26T19:31:40.370Z,60.91
2022-07-26T19:34:08.132Z,61.88
2022-07-26T19:36:35.570Z,61.60
2022-07-26T19:39:04.267Z,62.02
2022-07-26T19:41:31.987Z,62.14
2022-07-26T19:43:59.431Z,62.52
2022-07-26T19:46:26.946Z,62.59
2022-07-26T19:48:55.490Z,63.16
2022-07-26T19:51:23.056Z,64.81
2022-07-26T19:53:50.526Z,63.17
2022-07-26T19:56:18.457Z,63.01
2022-07-26T19:58:46.282Z,62.57
2022-07-26T20:01:14.004Z,63.60
2022-07-26T20:03:41.886Z,64.39
2022-07-26T20:06:09.324Z,63.86
2022-07-26T20:08:36.733Z,63.79
2022-07-26T20:11:04.428Z,63.17
2022-07-26T20:13:31.900Z,65.54
2022-07-26T20:15:59.992Z,63.76
2022-07-26T20:18:28.358Z,63.67
2022-07-26T20:20:56.337Z,63.89
2022-07-26T20:23:24.463Z,65.40
2022-07-26T20:25:52.142Z,69.55
2022-07-26T20:28:19.939Z,65.62
2022-07-26T20:30:48.499Z,65.59
2022-07-26T20:33:16.625Z,64.26
2022-07-26T20:35:44.563Z,64.96
2022-07-26T20:38:12.022Z,63.84
2022-07-26T20:40:40.161Z,63.80
2022-07-26T20:43:07.600Z,63.64
2022-07-26T20:45:35.168Z,63.88
2022-07-26T20:48:03.088Z,63.10
2022-07-26T20:50:30.539Z,63.85
2022-07-26T20:52:58.151Z,64.55
2022-07-26T20:55:25.893Z,64.67
2022-07-26T20:57:53.350Z,64.18
2022-07-26T21:00:20.850Z,63.66
2022-07-26T21:02:48.606Z,64.60
2022-07-26T21:05:16.089Z,65.05
2022-07-26T21:07:55.164Z,64.15
2022-07-26T21:10:29.264Z,65.58
2022-07-26T21:13:00.207Z,63.72
2022-07-26T21:15:29.080Z,64.37
2022-07-26T21:17:57.162Z,64.22
2022-07-26T21:20:24.800Z,63.89
2022-07-26T21:22:52.526Z,63.20
2022-07-26T21:25:20.081Z,64.89
2022-07-26T21:27:47.493Z,66.45
2022-07-26T21:30:15.184Z,69.39
2022-07-26T21:32:42.634Z,67.34
2022-07-26T21:35:10.456Z,68.00
2022-07-26T21:37:39.106Z,69.63
2022-07-26T21:40:09.032Z,67.60
2022-07-26T21:42:36.415Z,65.28
2022-07-26T21:45:05.023Z,66.09
2022-07-26T21:47:33.225Z,67.30
2022-07-26T21:50:00.648Z,63.64
2022-07-26T21:52:28.337Z,63.56
2022-07-26T21:54:55.753Z,62.08
2022-07-26T21:57:23.200Z,62.64
2022-07-26T21:59:50.954Z,62.75
2022-07-26T22:02:19.951Z,63.08
2022-07-26T22:04:49.658Z,66.85
2022-07-26T22:07:17.100Z,69.59
2022-07-26T22:09:44.562Z,73.59
2022-07-26T22:12:12.256Z,74.94
2022-07-26T22:14:39.713Z,75.34
2022-07-26T22:17:07.146Z,75.51
2022-07-26T22:19:34.829Z,75.97
2022-07-26T22:22:04.698Z,75.45
2022-07-26T22:24:32.416Z,75.75
2022-07-26T22:27:00.112Z,75.45
2022-07-26T22:29:28.023Z,75.20
2022-07-26T22:32:07.510Z,75.68
2022-07-26T22:34:34.939Z,75.59
2022-07-26T22:37:02.378Z,76.87
2022-07-26T22:39:30.204Z,76.78
2022-07-26T22:42:15.002Z,76.41
2022-07-26T22:44:43.797Z,75.63
2022-07-26T22:47:11.250Z,76.16
2022-07-26T22:49:38.798Z,76.17
2022-07-26T22:52:06.547Z,75.95
2022-07-26T22:54:33.957Z,76.21
2022-07-26T22:57:01.368Z,77.13
2022-07-26T22:59:29.164Z,76.13
2022-07-26T23:01:57.045Z,77.15
2022-07-26T23:04:24.597Z,77.65
2022-07-26T23:06:52.482Z,75.76
2022-07-26T23:09:22.303Z,75.89
2022-07-26T23:11:49.745Z,70.12
2022-07-26T23:14:17.517Z,68.23
2022-07-26T23:16:45.116Z,66.64
2022-07-26T23:19:13.050Z,67.75
2022-07-26T23:21:40.963Z,68.33
2022-07-26T23:24:08.499Z,68.07
2022-07-26T23:26:36.018Z,73.44
2022-07-26T23:29:04.603Z,69.19
2022-07-26T23:31:32.059Z,68.16
2022-07-26T23:33:59.618Z,69.12
2022-07-26T23:36:28.798Z,72.29
2022-07-26T23:38:58.482Z,67.92
2022-07-26T23:41:26.834Z,67.53
2022-07-26T23:43:55.036Z,67.42
2022-07-26T23:46:23.160Z,66.58
2022-07-26T23:48:51.401Z,68.82
2022-07-26T23:51:19.714Z,68.12
2022-07-26T23:53:47.583Z,72.42
2022-07-26T23:56:15.539Z,66.40
2022-07-26T23:58:43.457Z,67.98
